sensor_id;sensor_type;location;lat;lon;timestamp;temperature;humidity
546;DHT22;259;53.304;9.816;2024-01-27T00:00:26;15.00;78.20
546;DHT22;259;53.304;9.816;2024-01-27T00:02:52;14.90;78.40
546;DHT22;259;53.304;9.816;2024-01-27T00:05:17;14.90;78.30
546;DHT22;259;53.304;9.816;2024-01-27T00:07:43;14.90;78.30
546;DHT22;259;53.304;9.816;2024-01-27T00:10:09;14.90;78.40
546;DHT22;259;53.304;9.816;2024-01-27T00:12:36;14.80;79.10
546;DHT22;259;53.304;9.816;2024-01-27T00:15:01;14.80;78.50
546;DHT22;259;53.304;9.816;2024-01-27T00:17:27;14.80;78.40
546;DHT22;259;53.304;9.816;2024-01-27T00:19:54;14.80;78.50
546;DHT22;259;53.304;9.816;2024-01-27T00:22:20;14.80;78.50
546;DHT22;259;53.304;9.816;2024-01-27T00:24:46;14.80;79.30
546;DHT22;259;53.304;9.816;2024-01-27T00:27:12;14.70;78.40
546;DHT22;259;53.304;9.816;2024-01-27T00:29:39;14.70;78.40
546;DHT22;259;53.304;9.816;2024-01-27T00:32:05;14.70;78.40
546;DHT22;259;53.304;9.816;2024-01-27T00:34:30;14.70;78.40
546;DHT22;259;53.304;9.816;2024-01-27T00:36:56;14.70;78.40
546;DHT22;259;53.304;9.816;2024-01-27T00:39:22;14.70;78.50
546;DHT22;259;53.304;9.816;2024-01-27T00:41:48;14.60;78.60
546;DHT22;259;53.304;9.816;2024-01-27T00:44:14;14.60;78.70
546;DHT22;259;53.304;9.816;2024-01-27T00:46:39;14.60;78.70
546;DHT22;259;53.304;9.816;2024-01-27T00:49:05;14.60;78.80
546;DHT22;259;53.304;9.816;2024-01-27T00:51:31;14.50;79.40
546;DHT22;259;53.304;9.816;2024-01-27T00:53:57;14.50;78.90
546;DHT22;259;53.304;9.816;2024-01-27T00:56:23;14.50;78.80
546;DHT22;259;53.304;9.816;2024-01-27T00:58:49;14.50;78.90
546;DHT22;259;53.304;9.816;2024-01-27T01:01:14;14.50;79.10
546;DHT22;259;53.304;9.816;2024-01-27T01:03:40;14.40;79.10
546;DHT22;259;53.304;9.816;2024-01-27T01:06:06;14.40;79.20
546;DHT22;259;53.304;9.816;2024-01-27T01:08:32;14.40;79.00
546;DHT22;259;53.304;9.816;2024-01-27T01:10:58;14.40;79.20
546;DHT22;259;53.304;9.816;2024-01-27T01:13:24;14.40;79.20
546;DHT22;259;53.304;9.816;2024-01-27T01:15:49;14.30;79.10
546;DHT22;259;53.304;9.816;2024-01-27T01:18:15;14.30;80.00
546;DHT22;259;53.304;9.816;2024-01-27T01:20:41;14.30;79.40
546;DHT22;259;53.304;9.816;2024-01-27T01:23:07;14.30;79.40
546;DHT22;259;53.304;9.816;2024-01-27T01:25:32;14.30;79.50
546;DHT22;259;53.304;9.816;2024-01-27T01:27:58;14.20;79.50
546;DHT22;259;53.304;9.816;2024-01-27T01:30:24;14.20;79.40
546;DHT22;259;53.304;9.816;2024-01-27T01:32:49;14.20;79.50
546;DHT22;259;53.304;9.816;2024-01-27T01:35:15;14.20;79.50
546;DHT22;259;53.304;9.816;2024-01-27T01:37:41;14.10;79.40
546;DHT22;259;53.304;9.816;2024-01-27T01:40:07;14.10;79.60
546;DHT22;259;53.304;9.816;2024-01-27T01:42:33;14.10;79.60
546;DHT22;259;53.304;9.816;2024-01-27T01:44:59;14.10;79.70
546;DHT22;259;53.304;9.816;2024-01-27T01:47:25;14.10;79.70
546;DHT22;259;53.304;9.816;2024-01-27T01:49:52;14.10;79.70
546;DHT22;259;53.304;9.816;2024-01-27T01:52:18;14.10;79.80
546;DHT22;259;53.304;9.816;2024-01-27T01:54:49;14.00;79.80
546;DHT22;259;53.304;9.816;2024-01-27T01:57:16;14.00;79.80
546;DHT22;259;53.304;9.816;2024-01-27T01:59:42;14.00;80.00
546;DHT22;259;53.304;9.816;2024-01-27T02:02:12;14.00;80.00
546;DHT22;259;53.304;9.816;2024-01-27T02:04:44;14.00;79.90
546;DHT22;259;53.304;9.816;2024-01-27T02:07:14;13.90;79.90
546;DHT22;259;53.304;9.816;2024-01-27T02:09:40;13.90;79.90
546;DHT22;259;53.304;9.816;2024-01-27T02:12:06;13.90;80.00
546;DHT22;259;53.304;9.816;2024-01-27T02:14:32;13.90;80.10
546;DHT22;259;53.304;9.816;2024-01-27T02:16:58;13.90;80.10
546;DHT22;259;53.304;9.816;2024-01-27T02:19:24;13.80;80.10
546;DHT22;259;53.304;9.816;2024-01-27T02:21:50;13.80;80.20
546;DHT22;259;53.304;9.816;2024-01-27T02:24:15;13.80;80.10
546;DHT22;259;53.304;9.816;2024-01-27T02:26:41;13.80;80.20
546;DHT22;259;53.304;9.816;2024-01-27T02:29:07;13.80;80.30
546;DHT22;259;53.304;9.816;2024-01-27T02:31:33;13.80;80.40
546;DHT22;259;53.304;9.816;2024-01-27T02:33:59;13.80;80.40
546;DHT22;259;53.304;9.816;2024-01-27T02:36:34;13.70;80.40
546;DHT22;259;53.304;9.816;2024-01-27T02:38:59;13.70;80.40
546;DHT22;259;53.304;9.816;2024-01-27T02:41:25;13.70;80.40
546;DHT22;259;53.304;9.816;2024-01-27T02:43:51;13.70;80.50
546;DHT22;259;53.304;9.816;2024-01-27T02:46:16;13.60;80.50
546;DHT22;259;53.304;9.816;2024-01-27T02:48:42;13.60;80.50
546;DHT22;259;53.304;9.816;2024-01-27T02:51:08;13.60;80.60
546;DHT22;259;53.304;9.816;2024-01-27T02:53:34;13.60;80.60
546;DHT22;259;53.304;9.816;2024-01-27T02:56:00;13.60;80.80
546;DHT22;259;53.304;9.816;2024-01-27T02:58:26;13.60;80.80
546;DHT22;259;53.304;9.816;2024-01-27T03:00:52;13.60;80.90
546;DHT22;259;53.304;9.816;2024-01-27T03:03:18;13.50;80.70
546;DHT22;259;53.304;9.816;2024-01-27T03:05:43;13.50;80.90
546;DHT22;259;53.304;9.816;2024-01-27T03:08:09;13.50;80.90
546;DHT22;259;53.304;9.816;2024-01-27T03:10:35;13.50;81.00
546;DHT22;259;53.304;9.816;2024-01-27T03:13:01;13.50;80.90
546;DHT22;259;53.304;9.816;2024-01-27T03:15:26;13.50;81.00
546;DHT22;259;53.304;9.816;2024-01-27T03:17:52;13.50;81.00
546;DHT22;259;53.304;9.816;2024-01-27T03:20:18;13.40;80.90
546;DHT22;259;53.304;9.816;2024-01-27T03:22:43;13.40;81.00
546;DHT22;259;53.304;9.816;2024-01-27T03:25:10;13.40;81.00
546;DHT22;259;53.304;9.816;2024-01-27T03:27:39;13.40;81.10
546;DHT22;259;53.304;9.816;2024-01-27T03:30:05;13.40;81.20
546;DHT22;259;53.304;9.816;2024-01-27T03:32:32;13.40;81.10
546;DHT22;259;53.304;9.816;2024-01-27T03:35:00;13.30;81.00
546;DHT22;259;53.304;9.816;2024-01-27T03:37:27;13.40;81.30
546;DHT22;259;53.304;9.816;2024-01-27T03:39:53;13.30;81.20
546;DHT22;259;53.304;9.816;2024-01-27T03:42:18;13.30;81.30
546;DHT22;259;53.304;9.816;2024-01-27T03:44:44;13.30;81.30
546;DHT22;259;53.304;9.816;2024-01-27T03:47:10;13.30;81.40
546;DHT22;259;53.304;9.816;2024-01-27T03:49:36;13.20;81.30
546;DHT22;259;53.304;9.816;2024-01-27T03:52:02;13.20;81.30
546;DHT22;259;53.304;9.816;2024-01-27T03:54:28;13.20;81.40
546;DHT22;259;53.304;9.816;2024-01-27T03:56:54;13.20;81.50
546;DHT22;259;53.304;9.816;2024-01-27T03:59:20;13.20;81.50
546;DHT22;259;53.304;9.816;2024-01-27T04:01:46;13.20;81.50
546;DHT22;259;53.304;9.816;2024-01-27T04:04:12;13.20;81.50
546;DHT22;259;53.304;9.816;2024-01-27T04:06:39;13.20;82.30
546;DHT22;259;53.304;9.816;2024-01-27T04:09:06;13.20;81.60
546;DHT22;259;53.304;9.816;2024-01-27T04:11:35;13.20;81.60
546;DHT22;259;53.304;9.816;2024-01-27T04:14:02;13.10;81.50
546;DHT22;259;53.304;9.816;2024-01-27T04:16:29;13.10;81.40
546;DHT22;259;53.304;9.816;2024-01-27T04:18:54;13.10;82.20
546;DHT22;259;53.304;9.816;2024-01-27T04:21:20;13.10;81.60
546;DHT22;259;53.304;9.816;2024-01-27T04:23:46;13.10;81.60
546;DHT22;259;53.304;9.816;2024-01-27T04:26:11;13.10;81.70
546;DHT22;259;53.304;9.816;2024-01-27T04:28:37;13.10;81.80
546;DHT22;259;53.304;9.816;2024-01-27T04:31:03;13.00;81.70
546;DHT22;259;53.304;9.816;2024-01-27T04:33:29;13.00;81.70
546;DHT22;259;53.304;9.816;2024-01-27T04:35:55;13.00;81.90
546;DHT22;259;53.304;9.816;2024-01-27T04:38:21;13.00;82.00
546;DHT22;259;53.304;9.816;2024-01-27T04:40:46;13.00;82.00
546;DHT22;259;53.304;9.816;2024-01-27T04:43:16;13.00;81.90
546;DHT22;259;53.304;9.816;2024-01-27T04:45:43;12.90;82.00
546;DHT22;259;53.304;9.816;2024-01-27T04:48:09;12.90;82.00
546;DHT22;259;53.304;9.816;2024-01-27T04:50:35;12.90;81.90
546;DHT22;259;53.304;9.816;2024-01-27T04:53:01;12.90;82.00
546;DHT22;259;53.304;9.816;2024-01-27T04:55:27;12.90;82.10
546;DHT22;259;53.304;9.816;2024-01-27T04:57:53;12.90;82.10
546;DHT22;259;53.304;9.816;2024-01-27T05:00:19;12.90;82.20
546;DHT22;259;53.304;9.816;2024-01-27T05:02:45;12.80;82.10
546;DHT22;259;53.304;9.816;2024-01-27T05:05:11;12.80;82.10
546;DHT22;259;53.304;9.816;2024-01-27T05:07:38;12.80;82.20
546;DHT22;259;53.304;9.816;2024-01-27T05:10:04;12.80;82.20
546;DHT22;259;53.304;9.816;2024-01-27T05:12:30;12.80;82.30
546;DHT22;259;53.304;9.816;2024-01-27T05:14:56;12.80;82.20
546;DHT22;259;53.304;9.816;2024-01-27T05:17:22;12.80;82.30
546;DHT22;259;53.304;9.816;2024-01-27T05:19:49;12.80;82.40
546;DHT22;259;53.304;9.816;2024-01-27T05:22:15;12.70;82.30
546;DHT22;259;53.304;9.816;2024-01-27T05:24:41;12.70;82.30
546;DHT22;259;53.304;9.816;2024-01-27T05:27:06;12.70;82.50
546;DHT22;259;53.304;9.816;2024-01-27T05:29:32;12.70;82.50
546;DHT22;259;53.304;9.816;2024-01-27T05:31:58;12.70;82.50
546;DHT22;259;53.304;9.816;2024-01-27T05:34:23;12.60;82.50
546;DHT22;259;53.304;9.816;2024-01-27T05:36:49;12.70;82.60
546;DHT22;259;53.304;9.816;2024-01-27T05:39:15;12.60;82.60
546;DHT22;259;53.304;9.816;2024-01-27T05:41:41;12.60;82.50
546;DHT22;259;53.304;9.816;2024-01-27T05:44:06;12.60;82.60
546;DHT22;259;53.304;9.816;2024-01-27T05:46:32;12.60;82.60
546;DHT22;259;53.304;9.816;2024-01-27T05:48:58;12.60;82.70
546;DHT22;259;53.304;9.816;2024-01-27T05:51:28;12.60;82.70
546;DHT22;259;53.304;9.816;2024-01-27T05:53:55;12.50;82.60
546;DHT22;259;53.304;9.816;2024-01-27T05:56:21;12.50;82.60
546;DHT22;259;53.304;9.816;2024-01-27T05:58:49;12.50;82.70
546;DHT22;259;53.304;9.816;2024-01-27T06:01:17;12.50;82.70
546;DHT22;259;53.304;9.816;2024-01-27T06:03:43;12.50;82.70
546;DHT22;259;53.304;9.816;2024-01-27T06:06:09;12.50;82.80
546;DHT22;259;53.304;9.816;2024-01-27T06:08:35;12.40;82.70
546;DHT22;259;53.304;9.816;2024-01-27T06:11:01;12.40;82.80
546;DHT22;259;53.304;9.816;2024-01-27T06:13:29;12.40;82.80
546;DHT22;259;53.304;9.816;2024-01-27T06:15:55;12.40;82.90
546;DHT22;259;53.304;9.816;2024-01-27T06:18:20;12.40;83.00
546;DHT22;259;53.304;9.816;2024-01-27T06:20:46;12.40;82.90
546;DHT22;259;53.304;9.816;2024-01-27T06:23:12;12.40;83.00
546;DHT22;259;53.304;9.816;2024-01-27T06:25:38;12.40;83.10
546;DHT22;259;53.304;9.816;2024-01-27T06:28:04;12.30;83.00
546;DHT22;259;53.304;9.816;2024-01-27T06:30:30;12.30;83.10
546;DHT22;259;53.304;9.816;2024-01-27T06:32:55;12.30;83.10
546;DHT22;259;53.304;9.816;2024-01-27T06:35:21;12.30;83.20
546;DHT22;259;53.304;9.816;2024-01-27T06:37:47;12.30;83.10
546;DHT22;259;53.304;9.816;2024-01-27T06:40:13;12.20;83.00
546;DHT22;259;53.304;9.816;2024-01-27T06:42:39;12.30;83.30
546;DHT22;259;53.304;9.816;2024-01-27T06:45:04;12.30;83.40
546;DHT22;259;53.304;9.816;2024-01-27T06:47:31;12.20;83.20
546;DHT22;259;53.304;9.816;2024-01-27T06:49:56;12.20;83.20
546;DHT22;259;53.304;9.816;2024-01-27T06:52:22;12.20;83.30
546;DHT22;259;53.304;9.816;2024-01-27T06:54:48;12.20;83.40
546;DHT22;259;53.304;9.816;2024-01-27T06:57:20;12.20;83.30
546;DHT22;259;53.304;9.816;2024-01-27T06:59:48;12.10;83.30
546;DHT22;259;53.304;9.816;2024-01-27T07:02:22;12.20;83.40
546;DHT22;259;53.304;9.816;2024-01-27T07:04:48;12.10;83.30
546;DHT22;259;53.304;9.816;2024-01-27T07:07:13;12.10;83.40
546;DHT22;259;53.304;9.816;2024-01-27T07:09:39;12.10;83.40
546;DHT22;259;53.304;9.816;2024-01-27T07:12:05;12.10;83.40
546;DHT22;259;53.304;9.816;2024-01-27T07:14:31;12.10;83.50
546;DHT22;259;53.304;9.816;2024-01-27T07:16:57;12.00;83.40
546;DHT22;259;53.304;9.816;2024-01-27T07:19:22;12.00;83.40
546;DHT22;259;53.304;9.816;2024-01-27T07:21:48;12.00;83.50
546;DHT22;259;53.304;9.816;2024-01-27T07:24:14;12.00;83.50
546;DHT22;259;53.304;9.816;2024-01-27T07:26:40;12.00;83.50
546;DHT22;259;53.304;9.816;2024-01-27T07:29:07;12.00;83.50
546;DHT22;259;53.304;9.816;2024-01-27T07:31:33;12.00;83.50
546;DHT22;259;53.304;9.816;2024-01-27T07:33:59;12.00;83.60
546;DHT22;259;53.304;9.816;2024-01-27T07:36:24;11.90;83.50
546;DHT22;259;53.304;9.816;2024-01-27T07:38:51;12.00;83.60
546;DHT22;259;53.304;9.816;2024-01-27T07:41:17;11.90;83.60
546;DHT22;259;53.304;9.816;2024-01-27T07:43:43;11.90;83.70
546;DHT22;259;53.304;9.816;2024-01-27T07:46:08;11.90;83.70
546;DHT22;259;53.304;9.816;2024-01-27T07:48:34;11.90;83.70
546;DHT22;259;53.304;9.816;2024-01-27T07:51:00;11.90;83.70
546;DHT22;259;53.304;9.816;2024-01-27T07:53:26;11.80;83.60
546;DHT22;259;53.304;9.816;2024-01-27T07:55:51;11.80;83.60
546;DHT22;259;53.304;9.816;2024-01-27T07:58:19;11.80;83.70
546;DHT22;259;53.304;9.816;2024-01-27T08:00:45;11.80;83.60
546;DHT22;259;53.304;9.816;2024-01-27T08:03:10;11.80;83.70
546;DHT22;259;53.304;9.816;2024-01-27T08:05:36;11.80;83.70
546;DHT22;259;53.304;9.816;2024-01-27T08:08:02;11.80;83.80
546;DHT22;259;53.304;9.816;2024-01-27T08:10:28;11.80;83.80
546;DHT22;259;53.304;9.816;2024-01-27T08:12:53;11.70;83.70
546;DHT22;259;53.304;9.816;2024-01-27T08:15:19;11.70;83.80
546;DHT22;259;53.304;9.816;2024-01-27T08:17:45;11.70;83.80
546;DHT22;259;53.304;9.816;2024-01-27T08:20:11;11.70;83.80
546;DHT22;259;53.304;9.816;2024-01-27T08:22:37;11.70;83.70
546;DHT22;259;53.304;9.816;2024-01-27T08:25:03;11.70;83.80
546;DHT22;259;53.304;9.816;2024-01-27T08:27:29;11.70;83.90
546;DHT22;259;53.304;9.816;2024-01-27T08:29:55;11.70;83.90
546;DHT22;259;53.304;9.816;2024-01-27T08:32:20;11.70;83.90
546;DHT22;259;53.304;9.816;2024-01-27T08:34:46;11.60;83.80
546;DHT22;259;53.304;9.816;2024-01-27T08:37:18;11.60;83.80
546;DHT22;259;53.304;9.816;2024-01-27T08:39:44;11.70;83.80
546;DHT22;259;53.304;9.816;2024-01-27T08:42:11;11.60;83.80
546;DHT22;259;53.304;9.816;2024-01-27T08:44:38;11.60;83.80
546;DHT22;259;53.304;9.816;2024-01-27T08:47:04;11.60;84.00
546;DHT22;259;53.304;9.816;2024-01-27T08:49:30;11.60;83.80
546;DHT22;259;53.304;9.816;2024-01-27T08:51:56;11.60;83.80
546;DHT22;259;53.304;9.816;2024-01-27T08:54:22;11.60;83.70
546;DHT22;259;53.304;9.816;2024-01-27T08:56:48;11.60;83.80
546;DHT22;259;53.304;9.816;2024-01-27T08:59:13;11.50;83.60
546;DHT22;259;53.304;9.816;2024-01-27T09:01:39;11.60;83.80
546;DHT22;259;53.304;9.816;2024-01-27T09:04:05;11.50;83.70
546;DHT22;259;53.304;9.816;2024-01-27T09:06:31;11.50;83.80
546;DHT22;259;53.304;9.816;2024-01-27T09:08:56;11.50;83.90
546;DHT22;259;53.304;9.816;2024-01-27T09:11:22;11.50;83.80
546;DHT22;259;53.304;9.816;2024-01-27T09:13:49;11.50;83.90
546;DHT22;259;53.304;9.816;2024-01-27T09:16:17;11.40;83.80
546;DHT22;259;53.304;9.816;2024-01-27T09:18:43;11.40;83.90
546;DHT22;259;53.304;9.816;2024-01-27T09:21:09;11.40;84.00
546;DHT22;259;53.304;9.816;2024-01-27T09:23:35;11.40;84.00
546;DHT22;259;53.304;9.816;2024-01-27T09:26:01;11.40;84.10
546;DHT22;259;53.304;9.816;2024-01-27T09:28:26;11.40;84.10
546;DHT22;259;53.304;9.816;2024-01-27T09:30:52;11.40;84.20
546;DHT22;259;53.304;9.816;2024-01-27T09:33:18;11.40;84.10
546;DHT22;259;53.304;9.816;2024-01-27T09:35:45;11.40;84.10
546;DHT22;259;53.304;9.816;2024-01-27T09:38:12;11.40;84.10
546;DHT22;259;53.304;9.816;2024-01-27T09:40:40;11.40;84.30
546;DHT22;259;53.304;9.816;2024-01-27T09:43:06;11.40;84.30
546;DHT22;259;53.304;9.816;2024-01-27T09:45:32;11.30;84.10
546;DHT22;259;53.304;9.816;2024-01-27T09:48:00;11.30;84.10
546;DHT22;259;53.304;9.816;2024-01-27T09:50:26;11.30;84.20
546;DHT22;259;53.304;9.816;2024-01-27T09:52:53;11.30;84.30
546;DHT22;259;53.304;9.816;2024-01-27T09:55:19;11.30;84.30
546;DHT22;259;53.304;9.816;2024-01-27T09:57:45;11.30;84.10
546;DHT22;259;53.304;9.816;2024-01-27T10:00:12;11.30;84.20
546;DHT22;259;53.304;9.816;2024-01-27T10:02:39;11.20;84.10
546;DHT22;259;53.304;9.816;2024-01-27T10:05:08;11.20;84.20
546;DHT22;259;53.304;9.816;2024-01-27T10:07:35;11.20;84.10
546;DHT22;259;53.304;9.816;2024-01-27T10:10:00;11.20;84.20
546;DHT22;259;53.304;9.816;2024-01-27T10:12:28;11.20;84.10
546;DHT22;259;53.304;9.816;2024-01-27T10:14:54;11.20;84.30
546;DHT22;259;53.304;9.816;2024-01-27T10:17:24;11.20;84.30
546;DHT22;259;53.304;9.816;2024-01-27T10:20:04;11.20;84.20
546;DHT22;259;53.304;9.816;2024-01-27T10:22:40;11.20;84.30
546;DHT22;259;53.304;9.816;2024-01-27T10:25:07;11.20;84.30
546;DHT22;259;53.304;9.816;2024-01-27T10:27:34;11.20;84.30
546;DHT22;259;53.304;9.816;2024-01-27T10:29:59;11.10;84.30
546;DHT22;259;53.304;9.816;2024-01-27T10:32:25;11.10;84.20
546;DHT22;259;53.304;9.816;2024-01-27T10:35:06;11.10;84.30
546;DHT22;259;53.304;9.816;2024-01-27T10:37:36;11.10;84.10
546;DHT22;259;53.304;9.816;2024-01-27T10:40:03;11.10;84.10
546;DHT22;259;53.304;9.816;2024-01-27T10:42:30;11.10;84.40
546;DHT22;259;53.304;9.816;2024-01-27T10:44:59;11.10;84.40
546;DHT22;259;53.304;9.816;2024-01-27T10:47:29;11.10;84.20
546;DHT22;259;53.304;9.816;2024-01-27T10:49:59;11.10;84.30
546;DHT22;259;53.304;9.816;2024-01-27T10:52:31;11.10;84.30
546;DHT22;259;53.304;9.816;2024-01-27T10:55:04;11.10;84.20
546;DHT22;259;53.304;9.816;2024-01-27T10:57:34;11.10;84.40
546;DHT22;259;53.304;9.816;2024-01-27T11:00:04;11.10;84.30
546;DHT22;259;53.304;9.816;2024-01-27T11:02:35;11.10;84.20
546;DHT22;259;53.304;9.816;2024-01-27T11:05:04;11.10;84.20
546;DHT22;259;53.304;9.816;2024-01-27T11:07:32;11.10;84.30
546;DHT22;259;53.304;9.816;2024-01-27T11:09:58;11.10;84.20
546;DHT22;259;53.304;9.816;2024-01-27T11:12:25;11.10;84.20
546;DHT22;259;53.304;9.816;2024-01-27T11:14:51;11.10;84.30
546;DHT22;259;53.304;9.816;2024-01-27T11:17:18;11.10;84.30
546;DHT22;259;53.304;9.816;2024-01-27T11:19:45;11.00;84.20
546;DHT22;259;53.304;9.816;2024-01-27T11:22:27;11.10;84.30
546;DHT22;259;53.304;9.816;2024-01-27T11:27:41;11.00;84.30
546;DHT22;259;53.304;9.816;2024-01-27T11:30:29;11.00;84.40
546;DHT22;259;53.304;9.816;2024-01-27T11:32:56;11.00;84.40
546;DHT22;259;53.304;9.816;2024-01-27T11:35:23;11.00;84.80
546;DHT22;259;53.304;9.816;2024-01-27T11:37:50;11.00;84.40
546;DHT22;259;53.304;9.816;2024-01-27T11:40:15;11.00;84.40
546;DHT22;259;53.304;9.816;2024-01-27T11:42:41;11.00;84.40
546;DHT22;259;53.304;9.816;2024-01-27T11:45:10;11.00;84.40
546;DHT22;259;53.304;9.816;2024-01-27T11:47:36;11.00;84.30
546;DHT22;259;53.304;9.816;2024-01-27T11:50:02;11.00;84.40
546;DHT22;259;53.304;9.816;2024-01-27T11:52:28;11.00;84.40
546;DHT22;259;53.304;9.816;2024-01-27T11:54:58;11.00;84.40
546;DHT22;259;53.304;9.816;2024-01-27T11:57:25;11.00;84.30
546;DHT22;259;53.304;9.816;2024-01-27T11:59:52;11.00;84.10
546;DHT22;259;53.304;9.816;2024-01-27T12:02:18;11.10;84.20
546;DHT22;259;53.304;9.816;2024-01-27T12:04:44;11.10;84.10
546;DHT22;259;53.304;9.816;2024-01-27T12:07:10;11.10;84.00
546;DHT22;259;53.304;9.816;2024-01-27T12:09:36;11.10;83.80
546;DHT22;259;53.304;9.816;2024-01-27T12:12:06;11.20;83.90
546;DHT22;259;53.304;9.816;2024-01-27T12:14:40;11.20;83.60
546;DHT22;259;53.304;9.816;2024-01-27T12:17:16;11.30;83.50
546;DHT22;259;53.304;9.816;2024-01-27T12:19:46;11.30;83.70
546;DHT22;259;53.304;9.816;2024-01-27T12:22:24;11.40;83.80
546;DHT22;259;53.304;9.816;2024-01-27T12:24:55;11.40;83.30
546;DHT22;259;53.304;9.816;2024-01-27T12:27:22;11.40;83.00
546;DHT22;259;53.304;9.816;2024-01-27T12:29:49;11.50;83.10
546;DHT22;259;53.304;9.816;2024-01-27T12:32:15;11.50;83.00
546;DHT22;259;53.304;9.816;2024-01-27T12:34:42;11.50;83.00
546;DHT22;259;53.304;9.816;2024-01-27T12:37:11;11.50;83.00
546;DHT22;259;53.304;9.816;2024-01-27T12:39:42;11.50;83.00
546;DHT22;259;53.304;9.816;2024-01-27T12:42:11;11.50;82.70
546;DHT22;259;53.304;9.816;2024-01-27T12:44:37;11.50;82.80
546;DHT22;259;53.304;9.816;2024-01-27T12:47:04;11.50;83.10
546;DHT22;259;53.304;9.816;2024-01-27T12:49:30;11.50;83.00
546;DHT22;259;53.304;9.816;2024-01-27T12:51:56;11.60;83.00
546;DHT22;259;53.304;9.816;2024-01-27T12:54:22;11.60;82.20
546;DHT22;259;53.304;9.816;2024-01-27T12:56:47;11.70;82.10
546;DHT22;259;53.304;9.816;2024-01-27T12:59:13;11.70;81.80
546;DHT22;259;53.304;9.816;2024-01-27T13:01:40;11.80;82.40
546;DHT22;259;53.304;9.816;2024-01-27T13:04:05;11.80;82.30
546;DHT22;259;53.304;9.816;2024-01-27T13:06:31;11.90;82.50
546;DHT22;259;53.304;9.816;2024-01-27T13:08:57;11.90;82.50
546;DHT22;259;53.304;9.816;2024-01-27T13:11:23;11.90;82.20
546;DHT22;259;53.304;9.816;2024-01-27T13:13:49;11.90;81.90
546;DHT22;259;53.304;9.816;2024-01-27T13:16:16;11.90;81.90
546;DHT22;259;53.304;9.816;2024-01-27T13:18:41;11.90;81.70
546;DHT22;259;53.304;9.816;2024-01-27T13:21:07;12.00;81.70
546;DHT22;259;53.304;9.816;2024-01-27T13:23:34;12.00;81.60
546;DHT22;259;53.304;9.816;2024-01-27T13:25:59;12.00;81.60
546;DHT22;259;53.304;9.816;2024-01-27T13:28:25;11.90;81.40
546;DHT22;259;53.304;9.816;2024-01-27T13:30:51;11.90;81.50
546;DHT22;259;53.304;9.816;2024-01-27T13:33:16;11.90;81.60
546;DHT22;259;53.304;9.816;2024-01-27T13:35:42;11.90;81.30
546;DHT22;259;53.304;9.816;2024-01-27T13:38:15;12.00;81.40
546;DHT22;259;53.304;9.816;2024-01-27T13:40:45;12.00;81.30
546;DHT22;259;53.304;9.816;2024-01-27T13:43:11;12.00;81.10
546;DHT22;259;53.304;9.816;2024-01-27T13:45:36;12.00;81.10
546;DHT22;259;53.304;9.816;2024-01-27T13:48:02;12.00;81.10
546;DHT22;259;53.304;9.816;2024-01-27T13:50:28;12.00;80.90
546;DHT22;259;53.304;9.816;2024-01-27T13:52:57;12.00;81.00
546;DHT22;259;53.304;9.816;2024-01-27T13:55:23;12.00;81.10
546;DHT22;259;53.304;9.816;2024-01-27T13:57:49;12.00;81.20
546;DHT22;259;53.304;9.816;2024-01-27T14:00:16;12.00;81.10
546;DHT22;259;53.304;9.816;2024-01-27T14:02:42;12.00;81.40
546;DHT22;259;53.304;9.816;2024-01-27T14:05:08;11.90;81.10
546;DHT22;259;53.304;9.816;2024-01-27T14:07:34;11.90;81.20
546;DHT22;259;53.304;9.816;2024-01-27T14:10:00;11.90;81.20
546;DHT22;259;53.304;9.816;2024-01-27T14:12:26;11.90;81.20
546;DHT22;259;53.304;9.816;2024-01-27T14:14:52;11.90;81.30
546;DHT22;259;53.304;9.816;2024-01-27T14:17:18;11.90;81.20
546;DHT22;259;53.304;9.816;2024-01-27T14:19:46;11.90;81.30
546;DHT22;259;53.304;9.816;2024-01-27T14:22:12;11.90;81.30
546;DHT22;259;53.304;9.816;2024-01-27T14:24:38;11.90;81.30
546;DHT22;259;53.304;9.816;2024-01-27T14:27:07;11.90;81.40
546;DHT22;259;53.304;9.816;2024-01-27T14:29:33;11.90;81.60
546;DHT22;259;53.304;9.816;2024-01-27T14:32:00;11.90;81.70
546;DHT22;259;53.304;9.816;2024-01-27T14:34:28;11.90;81.70
546;DHT22;259;53.304;9.816;2024-01-27T14:36:54;11.90;81.90
546;DHT22;259;53.304;9.816;2024-01-27T14:39:20;11.90;82.10
546;DHT22;259;53.304;9.816;2024-01-27T14:41:46;11.90;82.10
546;DHT22;259;53.304;9.816;2024-01-27T14:44:12;11.80;83.10
546;DHT22;259;53.304;9.816;2024-01-27T14:46:37;11.80;82.50
546;DHT22;259;53.304;9.816;2024-01-27T14:49:08;11.80;82.60
546;DHT22;259;53.304;9.816;2024-01-27T14:51:35;11.80;82.80
546;DHT22;259;53.304;9.816;2024-01-27T14:54:01;11.80;82.70
546;DHT22;259;53.304;9.816;2024-01-27T14:56:31;11.70;82.80
546;DHT22;259;53.304;9.816;2024-01-27T14:58:58;11.70;82.80
546;DHT22;259;53.304;9.816;2024-01-27T15:01:24;11.70;83.00
546;DHT22;259;53.304;9.816;2024-01-27T15:03:50;11.70;83.20
546;DHT22;259;53.304;9.816;2024-01-27T15:06:16;11.60;83.10
546;DHT22;259;53.304;9.816;2024-01-27T15:08:42;11.60;83.30
546;DHT22;259;53.304;9.816;2024-01-27T15:11:11;11.60;83.40
546;DHT22;259;53.304;9.816;2024-01-27T15:13:37;11.60;83.60
546;DHT22;259;53.304;9.816;2024-01-27T15:16:03;11.50;83.70
546;DHT22;259;53.304;9.816;2024-01-27T15:18:29;11.50;83.80
546;DHT22;259;53.304;9.816;2024-01-27T15:20:54;11.50;83.90
546;DHT22;259;53.304;9.816;2024-01-27T15:23:20;11.50;83.90
546;DHT22;259;53.304;9.816;2024-01-27T15:25:48;11.50;84.10
546;DHT22;259;53.304;9.816;2024-01-27T15:28:14;11.50;84.30
546;DHT22;259;53.304;9.816;2024-01-27T15:30:39;11.50;84.50
546;DHT22;259;53.304;9.816;2024-01-27T15:33:07;11.40;84.50
546;DHT22;259;53.304;9.816;2024-01-27T15:35:33;11.40;84.70
546;DHT22;259;53.304;9.816;2024-01-27T15:38:00;11.40;84.90
546;DHT22;259;53.304;9.816;2024-01-27T15:40:26;11.40;84.90
546;DHT22;259;53.304;9.816;2024-01-27T15:42:52;11.40;85.10
546;DHT22;259;53.304;9.816;2024-01-27T15:45:17;11.40;85.10
546;DHT22;259;53.304;9.816;2024-01-27T15:47:43;11.30;85.00
546;DHT22;259;53.304;9.816;2024-01-27T15:50:09;11.30;85.10
546;DHT22;259;53.304;9.816;2024-01-27T15:52:38;11.30;85.20
546;DHT22;259;53.304;9.816;2024-01-27T15:55:04;11.30;85.20
546;DHT22;259;53.304;9.816;2024-01-27T15:57:30;11.30;85.30
546;DHT22;259;53.304;9.816;2024-01-27T15:59:57;11.30;85.30
546;DHT22;259;53.304;9.816;2024-01-27T16:02:23;11.30;85.40
546;DHT22;259;53.304;9.816;2024-01-27T16:04:49;11.30;85.60
546;DHT22;259;53.304;9.816;2024-01-27T16:07:14;11.20;85.60
546;DHT22;259;53.304;9.816;2024-01-27T16:09:46;11.20;85.60
546;DHT22;259;53.304;9.816;2024-01-27T16:12:12;11.20;85.60
546;DHT22;259;53.304;9.816;2024-01-27T16:14:38;11.20;85.70
546;DHT22;259;53.304;9.816;2024-01-27T16:17:03;11.20;85.90
546;DHT22;259;53.304;9.816;2024-01-27T16:19:29;11.20;86.00
546;DHT22;259;53.304;9.816;2024-01-27T16:21:56;11.20;86.10
546;DHT22;259;53.304;9.816;2024-01-27T16:24:22;11.20;86.10
546;DHT22;259;53.304;9.816;2024-01-27T16:26:48;11.20;86.30
546;DHT22;259;53.304;9.816;2024-01-27T16:29:16;11.20;86.30
546;DHT22;259;53.304;9.816;2024-01-27T16:31:42;11.20;86.30